sensor_id;sensor_type;location;lat;lon;timestamp;P1;durP1;ratioP1;P2;durP2;ratioP2
19482;SDS011;9882;51.166;6.992;2023-05-07T00:00:50;6.75;;;3.38;;
19482;SDS011;9882;51.166;6.992;2023-05-07T00:03:19;5.05;;;2.72;;
19482;SDS011;9882;51.166;6.992;2023-05-07T00:05:50;7.50;;;3.30;;
19482;SDS011;9882;51.166;6.992;2023-05-07T00:08:20;8.32;;;3.13;;
19482;SDS011;9882;51.166;6.992;2023-05-07T00:10:54;7.22;;;3.15;;
19482;SDS011;9882;51.166;6.992;2023-05-07T00:13:23;6.93;;;2.88;;
19482;SDS011;9882;51.166;6.992;2023-05-07T00:15:53;4.32;;;2.80;;
19482;SDS011;9882;51.166;6.992;2023-05-07T00:18:24;8.93;;;3.08;;
19482;SDS011;9882;51.166;6.992;2023-05-07T00:20:52;6.60;;;3.05;;
19482;SDS011;9882;51.166;6.992;2023-05-07T00:23:30;6.00;;;2.80;;
19482;SDS011;9882;51.166;6.992;2023-05-07T00:25:59;6.05;;;2.85;;
19482;SDS011;9882;51.166;6.992;2023-05-07T00:28:27;6.68;;;2.90;;
19482;SDS011;9882;51.166;6.992;2023-05-07T00:30:57;5.57;;;3.03;;
19482;SDS011;9882;51.166;6.992;2023-05-07T00:33:26;6.28;;;3.03;;
19482;SDS011;9882;51.166;6.992;2023-05-07T00:35:55;4.97;;;2.63;;
19482;SDS011;9882;51.166;6.992;2023-05-07T00:38:23;5.78;;;2.92;;
19482;SDS011;9882;51.166;6.992;2023-05-07T00:40:53;7.97;;;3.03;;
19482;SDS011;9882;51.166;6.992;2023-05-07T00:43:22;8.70;;;3.10;;
19482;SDS011;9882;51.166;6.992;2023-05-07T00:45:54;4.85;;;2.72;;
19482;SDS011;9882;51.166;6.992;2023-05-07T00:48:34;3.78;;;2.58;;
19482;SDS011;9882;51.166;6.992;2023-05-07T00:51:08;4.50;;;2.70;;
19482;SDS011;9882;51.166;6.992;2023-05-07T00:53:40;5.55;;;2.85;;
19482;SDS011;9882;51.166;6.992;2023-05-07T00:56:12;4.15;;;2.58;;
19482;SDS011;9882;51.166;6.992;2023-05-07T00:58:40;3.58;;;2.45;;
19482;SDS011;9882;51.166;6.992;2023-05-07T01:01:09;4.47;;;2.53;;
19482;SDS011;9882;51.166;6.992;2023-05-07T01:03:39;5.18;;;2.42;;
19482;SDS011;9882;51.166;6.992;2023-05-07T01:06:10;4.68;;;2.72;;
19482;SDS011;9882;51.166;6.992;2023-05-07T01:08:43;7.43;;;2.70;;
19482;SDS011;9882;51.166;6.992;2023-05-07T01:11:13;5.85;;;2.75;;
19482;SDS011;9882;51.166;6.992;2023-05-07T01:13:42;2.45;;;2.15;;
19482;SDS011;9882;51.166;6.992;2023-05-07T01:16:11;2.45;;;2.17;;
19482;SDS011;9882;51.166;6.992;2023-05-07T01:18:42;5.18;;;2.40;;
19482;SDS011;9882;51.166;6.992;2023-05-07T01:21:11;2.85;;;2.05;;
19482;SDS011;9882;51.166;6.992;2023-05-07T01:23:45;4.18;;;2.45;;
19482;SDS011;9882;51.166;6.992;2023-05-07T01:26:14;5.15;;;2.40;;
19482;SDS011;9882;51.166;6.992;2023-05-07T01:28:47;5.80;;;2.42;;
19482;SDS011;9882;51.166;6.992;2023-05-07T01:31:15;4.53;;;2.33;;
19482;SDS011;9882;51.166;6.992;2023-05-07T01:33:47;3.28;;;2.40;;
19482;SDS011;9882;51.166;6.992;2023-05-07T01:36:18;8.40;;;2.67;;
19482;SDS011;9882;51.166;6.992;2023-05-07T01:39:11;3.72;;;2.20;;
19482;SDS011;9882;51.166;6.992;2023-05-07T01:41:40;7.88;;;2.60;;
19482;SDS011;9882;51.166;6.992;2023-05-07T01:44:10;3.83;;;2.05;;
19482;SDS011;9882;51.166;6.992;2023-05-07T01:46:42;4.97;;;2.40;;
19482;SDS011;9882;51.166;6.992;2023-05-07T01:49:11;3.85;;;2.38;;
19482;SDS011;9882;51.166;6.992;2023-05-07T01:51:40;4.85;;;2.35;;
19482;SDS011;9882;51.166;6.992;2023-05-07T01:54:11;3.47;;;2.30;;
19482;SDS011;9882;51.166;6.992;2023-05-07T01:56:40;6.07;;;2.40;;
19482;SDS011;9882;51.166;6.992;2023-05-07T01:59:25;4.55;;;2.50;;
19482;SDS011;9882;51.166;6.992;2023-05-07T02:01:53;4.40;;;2.45;;
19482;SDS011;9882;51.166;6.992;2023-05-07T02:04:26;6.80;;;2.97;;
19482;SDS011;9882;51.166;6.992;2023-05-07T02:07:00;11.18;;;2.58;;
19482;SDS011;9882;51.166;6.992;2023-05-07T02:09:36;4.70;;;2.70;;
19482;SDS011;9882;51.166;6.992;2023-05-07T02:12:05;2.67;;;2.00;;
19482;SDS011;9882;51.166;6.992;2023-05-07T02:14:34;4.03;;;2.40;;
19482;SDS011;9882;51.166;6.992;2023-05-07T02:17:02;4.78;;;2.50;;
19482;SDS011;9882;51.166;6.992;2023-05-07T02:19:33;4.07;;;1.88;;
19482;SDS011;9882;51.166;6.992;2023-05-07T02:22:05;3.45;;;2.22;;
19482;SDS011;9882;51.166;6.992;2023-05-07T02:24:39;3.38;;;2.28;;
19482;SDS011;9882;51.166;6.992;2023-05-07T02:27:07;2.85;;;2.30;;
19482;SDS011;9882;51.166;6.992;2023-05-07T02:29:37;3.90;;;2.33;;
19482;SDS011;9882;51.166;6.992;2023-05-07T02:32:06;3.30;;;2.30;;
19482;SDS011;9882;51.166;6.992;2023-05-07T02:34:35;4.22;;;2.70;;
19482;SDS011;9882;51.166;6.992;2023-05-07T02:37:04;3.50;;;2.30;;
19482;SDS011;9882;51.166;6.992;2023-05-07T02:39:32;3.50;;;2.22;;
19482;SDS011;9882;51.166;6.992;2023-05-07T02:42:02;2.25;;;2.00;;
19482;SDS011;9882;51.166;6.992;2023-05-07T02:44:31;5.65;;;2.03;;
19482;SDS011;9882;51.166;6.992;2023-05-07T02:46:59;3.63;;;1.92;;
19482;SDS011;9882;51.166;6.992;2023-05-07T02:49:32;3.97;;;2.00;;
19482;SDS011;9882;51.166;6.992;2023-05-07T02:52:00;2.95;;;2.00;;
19482;SDS011;9882;51.166;6.992;2023-05-07T02:54:32;3.47;;;2.13;;
19482;SDS011;9882;51.166;6.992;2023-05-07T02:57:00;2.92;;;2.35;;
19482;SDS011;9882;51.166;6.992;2023-05-07T02:59:30;3.85;;;2.13;;
19482;SDS011;9882;51.166;6.992;2023-05-07T03:01:59;4.70;;;2.40;;
19482;SDS011;9882;51.166;6.992;2023-05-07T03:04:27;3.55;;;2.00;;
19482;SDS011;9882;51.166;6.992;2023-05-07T03:06:56;2.72;;;2.05;;
19482;SDS011;9882;51.166;6.992;2023-05-07T03:09:24;2.78;;;2.20;;
19482;SDS011;9882;51.166;6.992;2023-05-07T03:11:59;4.85;;;2.60;;
19482;SDS011;9882;51.166;6.992;2023-05-07T03:14:29;2.65;;;2.22;;
19482;SDS011;9882;51.166;6.992;2023-05-07T03:16:58;4.97;;;2.10;;
19482;SDS011;9882;51.166;6.992;2023-05-07T03:19:26;5.18;;;2.38;;
19482;SDS011;9882;51.166;6.992;2023-05-07T03:21:57;8.05;;;2.75;;
19482;SDS011;9882;51.166;6.992;2023-05-07T03:24:26;5.13;;;2.42;;
19482;SDS011;9882;51.166;6.992;2023-05-07T03:26:54;4.57;;;2.50;;
19482;SDS011;9882;51.166;6.992;2023-05-07T03:29:30;3.55;;;2.50;;
19482;SDS011;9882;51.166;6.992;2023-05-07T03:31:58;8.27;;;2.50;;
19482;SDS011;9882;51.166;6.992;2023-05-07T03:34:27;3.50;;;2.28;;
19482;SDS011;9882;51.166;6.992;2023-05-07T03:36:57;5.38;;;2.47;;
19482;SDS011;9882;51.166;6.992;2023-05-07T03:39:26;5.85;;;2.50;;
19482;SDS011;9882;51.166;6.992;2023-05-07T03:41:54;4.22;;;2.60;;
19482;SDS011;9882;51.166;6.992;2023-05-07T03:44:23;3.35;;;2.42;;
19482;SDS011;9882;51.166;6.992;2023-05-07T03:46:53;3.97;;;2.35;;
19482;SDS011;9882;51.166;6.992;2023-05-07T03:49:22;8.93;;;2.60;;
19482;SDS011;9882;51.166;6.992;2023-05-07T03:51:51;6.95;;;2.65;;
19482;SDS011;9882;51.166;6.992;2023-05-07T03:54:27;12.65;;;2.90;;
19482;SDS011;9882;51.166;6.992;2023-05-07T03:56:57;6.20;;;2.53;;
19482;SDS011;9882;51.166;6.992;2023-05-07T03:59:26;9.07;;;2.58;;
19482;SDS011;9882;51.166;6.992;2023-05-07T04:01:56;3.22;;;2.40;;
19482;SDS011;9882;51.166;6.992;2023-05-07T04:04:30;4.60;;;2.40;;
19482;SDS011;9882;51.166;6.992;2023-05-07T04:07:00;4.80;;;2.63;;
19482;SDS011;9882;51.166;6.992;2023-05-07T04:09:29;6.10;;;2.70;;
19482;SDS011;9882;51.166;6.992;2023-05-07T04:12:04;7.03;;;3.17;;
19482;SDS011;9882;51.166;6.992;2023-05-07T04:14:34;5.50;;;3.25;;
19482;SDS011;9882;51.166;6.992;2023-05-07T04:17:04;5.25;;;3.20;;
19482;SDS011;9882;51.166;6.992;2023-05-07T04:19:37;5.38;;;2.90;;
19482;SDS011;9882;51.166;6.992;2023-05-07T04:22:06;4.47;;;2.50;;
19482;SDS011;9882;51.166;6.992;2023-05-07T04:24:40;6.25;;;2.80;;
19482;SDS011;9882;51.166;6.992;2023-05-07T04:27:10;9.30;;;3.25;;
19482;SDS011;9882;51.166;6.992;2023-05-07T04:29:43;17.10;;;5.78;;
19482;SDS011;9882;51.166;6.992;2023-05-07T04:32:18;15.70;;;5.88;;
19482;SDS011;9882;51.166;6.992;2023-05-07T04:34:55;15.23;;;5.28;;
19482;SDS011;9882;51.166;6.992;2023-05-07T04:37:24;10.27;;;4.50;;
19482;SDS011;9882;51.166;6.992;2023-05-07T04:39:55;8.27;;;3.60;;
19482;SDS011;9882;51.166;6.992;2023-05-07T04:42:25;19.45;;;5.72;;
19482;SDS011;9882;51.166;6.992;2023-05-07T04:45:11;20.83;;;6.50;;
19482;SDS011;9882;51.166;6.992;2023-05-07T04:47:43;18.30;;;6.53;;
19482;SDS011;9882;51.166;6.992;2023-05-07T04:50:12;14.70;;;5.78;;
19482;SDS011;9882;51.166;6.992;2023-05-07T04:52:42;12.43;;;4.90;;
19482;SDS011;9882;51.166;6.992;2023-05-07T04:55:11;15.18;;;5.05;;
19482;SDS011;9882;51.166;6.992;2023-05-07T04:57:40;14.73;;;4.47;;
19482;SDS011;9882;51.166;6.992;2023-05-07T05:00:12;15.23;;;5.07;;
19482;SDS011;9882;51.166;6.992;2023-05-07T05:02:45;15.85;;;5.15;;
19482;SDS011;9882;51.166;6.992;2023-05-07T05:05:18;13.10;;;5.20;;
19482;SDS011;9882;51.166;6.992;2023-05-07T05:07:49;13.13;;;5.43;;
19482;SDS011;9882;51.166;6.992;2023-05-07T05:10:20;15.50;;;5.82;;
19482;SDS011;9882;51.166;6.992;2023-05-07T05:12:50;19.05;;;5.05;;
19482;SDS011;9882;51.166;6.992;2023-05-07T05:15:24;19.50;;;5.70;;
19482;SDS011;9882;51.166;6.992;2023-05-07T05:24:18;16.02;;;5.30;;
19482;SDS011;9882;51.166;6.992;2023-05-07T05:34:42;6.60;;;2.92;;
19482;SDS011;9882;51.166;6.992;2023-05-07T05:43:15;9.75;;;4.25;;
19482;SDS011;9882;51.166;6.992;2023-05-07T05:45:43;14.90;;;4.68;;
19482;SDS011;9882;51.166;6.992;2023-05-07T05:48:12;7.93;;;3.63;;
19482;SDS011;9882;51.166;6.992;2023-05-07T05:50:42;13.13;;;4.18;;
19482;SDS011;9882;51.166;6.992;2023-05-07T05:53:11;6.30;;;2.97;;
19482;SDS011;9882;51.166;6.992;2023-05-07T05:55:40;5.28;;;3.28;;
19482;SDS011;9882;51.166;6.992;2023-05-07T05:58:11;9.98;;;3.47;;
19482;SDS011;9882;51.166;6.992;2023-05-07T06:00:48;7.38;;;3.22;;
19482;SDS011;9882;51.166;6.992;2023-05-07T06:03:21;6.35;;;2.80;;
19482;SDS011;9882;51.166;6.992;2023-05-07T06:05:52;7.00;;;3.13;;
19482;SDS011;9882;51.166;6.992;2023-05-07T06:08:21;7.07;;;3.45;;
19482;SDS011;9882;51.166;6.992;2023-05-07T06:10:50;4.68;;;2.65;;
19482;SDS011;9882;51.166;6.992;2023-05-07T06:13:18;4.82;;;2.60;;
19482;SDS011;9882;51.166;6.992;2023-05-07T06:15:50;8.80;;;3.38;;
19482;SDS011;9882;51.166;6.992;2023-05-07T06:18:19;7.05;;;3.10;;
19482;SDS011;9882;51.166;6.992;2023-05-07T06:20:48;9.40;;;2.85;;
19482;SDS011;9882;51.166;6.992;2023-05-07T06:23:24;6.35;;;3.08;;
19482;SDS011;9882;51.166;6.992;2023-05-07T06:25:53;11.52;;;3.25;;
19482;SDS011;9882;51.166;6.992;2023-05-07T06:28:26;5.40;;;3.10;;
19482;SDS011;9882;51.166;6.992;2023-05-07T06:30:55;11.32;;;3.90;;
19482;SDS011;9882;51.166;6.992;2023-05-07T06:33:23;13.00;;;4.70;;
19482;SDS011;9882;51.166;6.992;2023-05-07T06:35:52;11.73;;;4.40;;
19482;SDS011;9882;51.166;6.992;2023-05-07T06:38:22;16.48;;;5.43;;
19482;SDS011;9882;51.166;6.992;2023-05-07T06:40:52;12.73;;;4.10;;
19482;SDS011;9882;51.166;6.992;2023-05-07T06:43:22;10.02;;;3.92;;
19482;SDS011;9882;51.166;6.992;2023-05-07T06:46:00;11.50;;;3.00;;
19482;SDS011;9882;51.166;6.992;2023-05-07T06:48:28;8.20;;;3.53;;
19482;SDS011;9882;51.166;6.992;2023-05-07T06:51:04;17.05;;;4.93;;
19482;SDS011;9882;51.166;6.992;2023-05-07T06:53:38;20.80;;;5.80;;
19482;SDS011;9882;51.166;6.992;2023-05-07T06:56:14;12.85;;;4.88;;
19482;SDS011;9882;51.166;6.992;2023-05-07T06:58:42;15.98;;;5.57;;
19482;SDS011;9882;51.166;6.992;2023-05-07T07:01:11;22.10;;;6.63;;
19482;SDS011;9882;51.166;6.992;2023-05-07T07:03:40;15.02;;;5.40;;
19482;SDS011;9882;51.166;6.992;2023-05-07T07:06:09;9.20;;;3.63;;
19482;SDS011;9882;51.166;6.992;2023-05-07T07:08:39;12.18;;;4.93;;
19482;SDS011;9882;51.166;6.992;2023-05-07T07:11:12;12.55;;;4.20;;
19482;SDS011;9882;51.166;6.992;2023-05-07T07:13:44;12.02;;;4.55;;
19482;SDS011;9882;51.166;6.992;2023-05-07T07:16:12;15.48;;;4.10;;
19482;SDS011;9882;51.166;6.992;2023-05-07T07:18:41;10.40;;;4.07;;
19482;SDS011;9882;51.166;6.992;2023-05-07T07:27:17;6.93;;;2.80;;
19482;SDS011;9882;51.166;6.992;2023-05-07T07:33:01;9.45;;;3.78;;
19482;SDS011;9882;51.166;6.992;2023-05-07T07:35:34;11.35;;;3.88;;
19482;SDS011;9882;51.166;6.992;2023-05-07T07:38:20;6.20;;;2.80;;
19482;SDS011;9882;51.166;6.992;2023-05-07T07:44:29;6.13;;;2.72;;
19482;SDS011;9882;51.166;6.992;2023-05-07T07:47:33;5.82;;;2.55;;
19482;SDS011;9882;51.166;6.992;2023-05-07T07:50:02;4.20;;;2.40;;
19482;SDS011;9882;51.166;6.992;2023-05-07T07:52:38;3.17;;;2.15;;
19482;SDS011;9882;51.166;6.992;2023-05-07T07:55:40;7.70;;;2.97;;
19482;SDS011;9882;51.166;6.992;2023-05-07T07:58:14;7.88;;;3.00;;
19482;SDS011;9882;51.166;6.992;2023-05-07T08:00:45;3.13;;;2.53;;
19482;SDS011;9882;51.166;6.992;2023-05-07T08:03:14;7.35;;;2.70;;
19482;SDS011;9882;51.166;6.992;2023-05-07T08:08:03;6.38;;;2.70;;
19482;SDS011;9882;51.166;6.992;2023-05-07T08:09:16;5.72;;;2.42;;
19482;SDS011;9882;51.166;6.992;2023-05-07T08:11:46;5.55;;;2.67;;
19482;SDS011;9882;51.166;6.992;2023-05-07T08:18:09;7.15;;;2.38;;
19482;SDS011;9882;51.166;6.992;2023-05-07T08:23:48;4.45;;;2.47;;
19482;SDS011;9882;51.166;6.992;2023-05-07T08:26:17;7.53;;;2.30;;
19482;SDS011;9882;51.166;6.992;2023-05-07T08:28:48;3.47;;;2.45;;
19482;SDS011;9882;51.166;6.992;2023-05-07T08:31:18;5.53;;;2.53;;
19482;SDS011;9882;51.166;6.992;2023-05-07T08:33:46;8.07;;;2.50;;
19482;SDS011;9882;51.166;6.992;2023-05-07T08:36:15;4.75;;;2.63;;
19482;SDS011;9882;51.166;6.992;2023-05-07T08:38:45;6.15;;;2.60;;
19482;SDS011;9882;51.166;6.992;2023-05-07T08:41:15;2.70;;;2.20;;
19482;SDS011;9882;51.166;6.992;2023-05-07T08:43:46;7.07;;;2.75;;
19482;SDS011;9882;51.166;6.992;2023-05-07T08:46:21;6.50;;;2.85;;
19482;SDS011;9882;51.166;6.992;2023-05-07T08:48:55;3.70;;;2.45;;
19482;SDS011;9882;51.166;6.992;2023-05-07T08:51:29;6.40;;;2.83;;
19482;SDS011;9882;51.166;6.992;2023-05-07T08:53:59;4.80;;;2.70;;
19482;SDS011;9882;51.166;6.992;2023-05-07T08:56:33;6.68;;;2.50;;
19482;SDS011;9882;51.166;6.992;2023-05-07T08:59:02;3.95;;;2.38;;
19482;SDS011;9882;51.166;6.992;2023-05-07T09:01:32;4.30;;;2.50;;
19482;SDS011;9882;51.166;6.992;2023-05-07T09:04:07;3.70;;;2.45;;
19482;SDS011;9882;51.166;6.992;2023-05-07T09:06:41;8.70;;;2.63;;
19482;SDS011;9882;51.166;6.992;2023-05-07T09:09:14;4.50;;;2.58;;
19482;SDS011;9882;51.166;6.992;2023-05-07T09:11:45;5.15;;;2.60;;
19482;SDS011;9882;51.166;6.992;2023-05-07T09:14:18;5.93;;;2.80;;
19482;SDS011;9882;51.166;6.992;2023-05-07T09:16:55;3.13;;;2.35;;
19482;SDS011;9882;51.166;6.992;2023-05-07T09:19:27;8.98;;;2.67;;
19482;SDS011;9882;51.166;6.992;2023-05-07T09:21:59;6.93;;;2.40;;
19482;SDS011;9882;51.166;6.992;2023-05-07T09:24:39;3.58;;;2.22;;
19482;SDS011;9882;51.166;6.992;2023-05-07T09:27:10;4.20;;;2.20;;
19482;SDS011;9882;51.166;6.992;2023-05-07T09:29:43;2.75;;;1.95;;
19482;SDS011;9882;51.166;6.992;2023-05-07T09:32:17;7.32;;;2.40;;
19482;SDS011;9882;51.166;6.992;2023-05-07T09:34:52;5.35;;;1.77;;
19482;SDS011;9882;51.166;6.992;2023-05-07T09:37:23;4.10;;;2.40;;
19482;SDS011;9882;51.166;6.992;2023-05-07T09:40:04;7.15;;;2.80;;
19482;SDS011;9882;51.166;6.992;2023-05-07T09:42:36;4.68;;;2.40;;
19482;SDS011;9882;51.166;6.992;2023-05-07T09:45:05;3.17;;;2.05;;
19482;SDS011;9882;51.166;6.992;2023-05-07T09:47:40;2.75;;;2.17;;
19482;SDS011;9882;51.166;6.992;2023-05-07T09:50:12;5.95;;;2.35;;
19482;SDS011;9882;51.166;6.992;2023-05-07T09:52:43;5.63;;;2.42;;
19482;SDS011;9882;51.166;6.992;2023-05-07T09:55:14;6.45;;;2.17;;
19482;SDS011;9882;51.166;6.992;2023-05-07T09:57:53;4.07;;;2.47;;
19482;SDS011;9882;51.166;6.992;2023-05-07T10:00:36;5.32;;;2.38;;
19482;SDS011;9882;51.166;6.992;2023-05-07T10:03:16;6.95;;;2.35;;
19482;SDS011;9882;51.166;6.992;2023-05-07T10:05:57;2.78;;;2.00;;
19482;SDS011;9882;51.166;6.992;2023-05-07T10:08:33;3.35;;;2.22;;
19482;SDS011;9882;51.166;6.992;2023-05-07T10:11:03;5.55;;;2.30;;
19482;SDS011;9882;51.166;6.992;2023-05-07T10:13:35;4.72;;;2.30;;
19482;SDS011;9882;51.166;6.992;2023-05-07T10:16:07;4.90;;;2.25;;
19482;SDS011;9882;51.166;6.992;2023-05-07T10:19:04;5.15;;;2.13;;
19482;SDS011;9882;51.166;6.992;2023-05-07T10:21:44;2.42;;;2.20;;
19482;SDS011;9882;51.166;6.992;2023-05-07T10:24:58;3.78;;;1.85;;
19482;SDS011;9882;51.166;6.992;2023-05-07T10:28:26;3.20;;;2.13;;
19482;SDS011;9882;51.166;6.992;2023-05-07T10:30:59;8.23;;;2.53;;
19482;SDS011;9882;51.166;6.992;2023-05-07T10:33:51;3.45;;;2.10;;
19482;SDS011;9882;51.166;6.992;2023-05-07T10:36:23;8.52;;;3.63;;
19482;SDS011;9882;51.166;6.992;2023-05-07T10:39:07;3.42;;;2.28;;
19482;SDS011;9882;51.166;6.992;2023-05-07T10:41:43;4.30;;;2.00;;
19482;SDS011;9882;51.166;6.992;2023-05-07T10:44:24;4.80;;;1.92;;
19482;SDS011;9882;51.166;6.992;2023-05-07T10:47:10;4.35;;;2.05;;
19482;SDS011;9882;51.166;6.992;2023-05-07T10:50:46;2.63;;;2.20;;
19482;SDS011;9882;51.166;6.992;2023-05-07T10:53:22;2.10;;;1.80;;
19482;SDS011;9882;51.166;6.992;2023-05-07T10:56:26;2.30;;;1.85;;
19482;SDS011;9882;51.166;6.992;2023-05-07T11:13:11;3.97;;;2.15;;
19482;SDS011;9882;51.166;6.992;2023-05-07T11:15:46;2.00;;;1.73;;
19482;SDS011;9882;51.166;6.992;2023-05-07T11:18:47;8.00;;;2.60;;
19482;SDS011;9882;51.166;6.992;2023-05-07T11:21:35;3.20;;;2.10;;
19482;SDS011;9882;51.166;6.992;2023-05-07T11:24:13;4.18;;;2.45;;
19482;SDS011;9882;51.166;6.992;2023-05-07T11:27:06;4.70;;;2.15;;
19482;SDS011;9882;51.166;6.992;2023-05-07T11:29:44;2.22;;;2.00;;
19482;SDS011;9882;51.166;6.992;2023-05-07T11:32:22;4.18;;;2.47;;
19482;SDS011;9882;51.166;6.992;2023-05-07T11:34:54;6.57;;;2.20;;
19482;SDS011;9882;51.166;6.992;2023-05-07T11:37:25;2.72;;;1.80;;
19482;SDS011;9882;51.166;6.992;2023-05-07T11:40:05;3.38;;;2.10;;
19482;SDS011;9882;51.166;6.992;2023-05-07T11:42:56;7.53;;;2.58;;
19482;SDS011;9882;51.166;6.992;2023-05-07T11:45:44;5.18;;;2.35;;
19482;SDS011;9882;51.166;6.992;2023-05-07T11:48:22;4.20;;;2.20;;
19482;SDS011;9882;51.166;6.992;2023-05-07T11:51:05;7.53;;;2.03;;
19482;SDS011;9882;51.166;6.992;2023-05-07T11:53:35;3.88;;;2.22;;
19482;SDS011;9882;51.166;6.992;2023-05-07T11:56:14;4.28;;;1.92;;
19482;SDS011;9882;51.166;6.992;2023-05-07T11:58:54;3.30;;;2.08;;
19482;SDS011;9882;51.166;6.992;2023-05-07T12:01:32;4.25;;;2.28;;
19482;SDS011;9882;51.166;6.992;2023-05-07T12:04:03;5.32;;;2.42;;
19482;SDS011;9882;51.166;6.992;2023-05-07T12:06:36;3.08;;;2.10;;
19482;SDS011;9882;51.166;6.992;2023-05-07T12:09:13;5.97;;;2.10;;
19482;SDS011;9882;51.166;6.992;2023-05-07T12:11:48;2.20;;;2.00;;
19482;SDS011;9882;51.166;6.992;2023-05-07T12:14:20;3.88;;;2.20;;
19482;SDS011;9882;51.166;6.992;2023-05-07T12:16:56;3.13;;;1.95;;
19482;SDS011;9882;51.166;6.992;2023-05-07T12:19:25;4.05;;;2.33;;
19482;SDS011;9882;51.166;6.992;2023-05-07T12:22:03;5.47;;;2.35;;
19482;SDS011;9882;51.166;6.992;2023-05-07T12:24:44;2.95;;;2.08;;
19482;SDS011;9882;51.166;6.992;2023-05-07T12:27:22;5.05;;;2.38;;
19482;SDS011;9882;51.166;6.992;2023-05-07T12:29:57;2.40;;;1.90;;
19482;SDS011;9882;51.166;6.992;2023-05-07T12:32:28;7.85;;;2.85;;
19482;SDS011;9882;51.166;6.992;2023-05-07T12:35:05;4.20;;;2.33;;
19482;SDS011;9882;51.166;6.992;2023-05-07T12:37:34;5.15;;;2.65;;
19482;SDS011;9882;51.166;6.992;2023-05-07T12:40:14;5.00;;;2.60;;
19482;SDS011;9882;51.166;6.992;2023-05-07T12:42:42;5.07;;;2.90;;
19482;SDS011;9882;51.166;6.992;2023-05-07T12:45:37;6.65;;;2.78;;
19482;SDS011;9882;51.166;6.992;2023-05-07T12:51:22;7.18;;;3.00;;
19482;SDS011;9882;51.166;6.992;2023-05-07T12:54:11;6.47;;;2.88;;
19482;SDS011;9882;51.166;6.992;2023-05-07T12:56:44;4.63;;;2.60;;
19482;SDS011;9882;51.166;6.992;2023-05-07T12:59:15;7.65;;;2.72;;
19482;SDS011;9882;51.166;6.992;2023-05-07T13:01:45;4.07;;;2.50;;
19482;SDS011;9882;51.166;6.992;2023-05-07T13:04:15;5.28;;;2.83;;
19482;SDS011;9882;51.166;6.992;2023-05-07T13:06:43;4.35;;;2.60;;
19482;SDS011;9882;51.166;6.992;2023-05-07T13:09:12;4.70;;;2.58;;
19482;SDS011;9882;51.166;6.992;2023-05-07T13:11:41;3.58;;;2.20;;
19482;SDS011;9882;51.166;6.992;2023-05-07T13:14:12;3.97;;;2.47;;
19482;SDS011;9882;51.166;6.992;2023-05-07T13:16:41;4.28;;;2.65;;
19482;SDS011;9882;51.166;6.992;2023-05-07T13:19:10;5.43;;;2.78;;
19482;SDS011;9882;51.166;6.992;2023-05-07T13:21:39;10.27;;;2.67;;
19482;SDS011;9882;51.166;6.992;2023-05-07T13:24:08;8.05;;;3.20;;
19482;SDS011;9882;51.166;6.992;2023-05-07T13:26:36;6.60;;;2.72;;
19482;SDS011;9882;51.166;6.992;2023-05-07T13:29:05;8.40;;;2.97;;
19482;SDS011;9882;51.166;6.992;2023-05-07T13:31:33;8.13;;;3.13;;
19482;SDS011;9882;51.166;6.992;2023-05-07T13:34:02;14.65;;;5.18;;
19482;SDS011;9882;51.166;6.992;2023-05-07T13:36:30;21.00;;;6.15;;
19482;SDS011;9882;51.166;6.992;2023-05-07T13:39:03;8.35;;;3.42;;
19482;SDS011;9882;51.166;6.992;2023-05-07T13:41:32;9.13;;;3.90;;
19482;SDS011;9882;51.166;6.992;2023-05-07T13:44:01;12.40;;;4.60;;
19482;SDS011;9882;51.166;6.992;2023-05-07T13:46:29;10.27;;;3.65;;
19482;SDS011;9882;51.166;6.992;2023-05-07T13:48:58;9.32;;;3.30;;
19482;SDS011;9882;51.166;6.992;2023-05-07T13:51:26;9.35;;;4.22;;
19482;SDS011;9882;51.166;6.992;2023-05-07T13:53:55;12.45;;;3.83;;
19482;SDS011;9882;51.166;6.992;2023-05-07T13:56:26;10.57;;;3.72;;
19482;SDS011;9882;51.166;6.992;2023-05-07T13:58:57;6.68;;;3.58;;
19482;SDS011;9882;51.166;6.992;2023-05-07T14:01:26;9.88;;;3.80;;
19482;SDS011;9882;51.166;6.992;2023-05-07T14:03:56;9.57;;;3.35;;
19482;SDS011;9882;51.166;6.992;2023-05-07T14:06:26;11.30;;;4.10;;
19482;SDS011;9882;51.166;6.992;2023-05-07T14:08:57;6.22;;;3.78;;
19482;SDS011;9882;51.166;6.992;2023-05-07T14:11:28;6.13;;;3.33;;
19482;SDS011;9882;51.166;6.992;2023-05-07T14:13:58;9.07;;;3.72;;
19482;SDS011;9882;51.166;6.992;2023-05-07T14:16:26;9.85;;;3.65;;
19482;SDS011;9882;51.166;6.992;2023-05-07T14:18:55;12.90;;;3.90;;
19482;SDS011;9882;51.166;6.992;2023-05-07T14:21:24;12.93;;;3.80;;
19482;SDS011;9882;51.166;6.992;2023-05-07T14:23:58;8.98;;;3.75;;
19482;SDS011;9882;51.166;6.992;2023-05-07T14:26:26;9.45;;;3.80;;
19482;SDS011;9882;51.166;6.992;2023-05-07T14:28:57;7.15;;;3.72;;
19482;SDS011;9882;51.166;6.992;2023-05-07T14:31:25;13.30;;;4.85;;
19482;SDS011;9882;51.166;6.992;2023-05-07T14:33:54;15.13;;;4.97;;
19482;SDS011;9882;51.166;6.992;2023-05-07T14:36:26;11.02;;;4.18;;
19482;SDS011;9882;51.166;6.992;2023-05-07T14:38:58;17.38;;;4.68;;
19482;SDS011;9882;51.166;6.992;2023-05-07T14:41:34;17.65;;;5.65;;
19482;SDS011;9882;51.166;6.992;2023-05-07T14:44:03;27.25;;;6.45;;
19482;SDS011;9882;51.166;6.992;2023-05-07T14:46:31;12.93;;;5.47;;
19482;SDS011;9882;51.166;6.992;2023-05-07T14:49:01;16.08;;;5.45;;
19482;SDS011;9882;51.166;6.992;2023-05-07T14:51:31;11.82;;;4.97;;
19482;SDS011;9882;51.166;6.992;2023-05-07T14:54:02;18.08;;;4.85;;
19482;SDS011;9882;51.166;6.992;2023-05-07T14:56:33;17.95;;;5.70;;
19482;SDS011;9882;51.166;6.992;2023-05-07T14:59:03;14.75;;;5.00;;
19482;SDS011;9882;51.166;6.992;2023-05-07T15:01:35;14.75;;;5.38;;
19482;SDS011;9882;51.166;6.992;2023-05-07T15:04:11;13.68;;;5.00;;
19482;SDS011;9882;51.166;6.992;2023-05-07T15:06:54;15.48;;;5.20;;
19482;SDS011;9882;51.166;6.992;2023-05-07T15:10:41;14.90;;;4.75;;
19482;SDS011;9882;51.166;6.992;2023-05-07T15:16:19;13.98;;;4.78;;
19482;SDS011;9882;51.166;6.992;2023-05-07T15:18:57;10.27;;;4.72;;
19482;SDS011;9882;51.166;6.992;2023-05-07T15:21:35;15.02;;;5.03;;
19482;SDS011;9882;51.166;6.992;2023-05-07T15:24:09;12.55;;;5.53;;
19482;SDS011;9882;51.166;6.992;2023-05-07T15:26:39;12.82;;;5.03;;
19482;SDS011;9882;51.166;6.992;2023-05-07T15:29:35;25.65;;;8.20;;
19482;SDS011;9882;51.166;6.992;2023-05-07T15:32:34;24.38;;;9.73;;
19482;SDS011;9882;51.166;6.992;2023-05-07T15:35:05;26.75;;;10.85;;
19482;SDS011;9882;51.166;6.992;2023-05-07T15:38:46;32.78;;;12.60;;
19482;SDS011;9882;51.166;6.992;2023-05-07T15:44:40;14.70;;;6.38;;
19482;SDS011;9882;51.166;6.992;2023-05-07T15:47:09;22.00;;;8.30;;
19482;SDS011;9882;51.166;6.992;2023-05-07T15:49:39;23.48;;;8.32;;
19482;SDS011;9882;51.166;6.992;2023-05-07T15:52:07;20.60;;;7.47;;
19482;SDS011;9882;51.166;6.992;2023-05-07T15:54:37;20.98;;;8.20;;
19482;SDS011;9882;51.166;6.992;2023-05-07T15:57:05;16.88;;;6.90;;
19482;SDS011;9882;51.166;6.992;2023-05-07T15:59:34;16.48;;;6.63;;
19482;SDS011;9882;51.166;6.992;2023-05-07T16:02:03;20.75;;;7.32;;
19482;SDS011;9882;51.166;6.992;2023-05-07T16:04:31;18.77;;;6.90;;
19482;SDS011;9882;51.166;6.992;2023-05-07T16:10:43;19.35;;;6.93;;
19482;SDS011;9882;51.166;6.992;2023-05-07T16:29:27;13.85;;;5.55;;
19482;SDS011;9882;51.166;6.992;2023-05-07T16:55:48;18.80;;;5.20;;
19482;SDS011;9882;51.166;6.992;2023-05-07T16:59:38;10.23;;;4.45;;
19482;SDS011;9882;51.166;6.992;2023-05-07T17:02:51;9.35;;;4.32;;
19482;SDS011;9882;51.166;6.992;2023-05-07T17:05:19;9.30;;;4.53;;
19482;SDS011;9882;51.166;6.992;2023-05-07T17:07:50;9.60;;;4.45;;
19482;SDS011;9882;51.166;6.992;2023-05-07T17:10:21;10.38;;;4.13;;
19482;SDS011;9882;51.166;6.992;2023-05-07T17:12:51;10.70;;;4.30;;
19482;SDS011;9882;51.166;6.992;2023-05-07T17:15:19;10.43;;;4.47;;
19482;SDS011;9882;51.166;6.992;2023-05-07T17:17:52;10.82;;;4.45;;
19482;SDS011;9882;51.166;6.992;2023-05-07T17:20:28;11.50;;;4.35;;
19482;SDS011;9882;51.166;6.992;2023-05-07T17:22:57;8.65;;;4.22;;
19482;SDS011;9882;51.166;6.992;2023-05-07T17:25:37;12.60;;;4.55;;